sensor_id;sensor_type;location;lat;lon;timestamp;P1;durP1;ratioP1;P2;durP2;ratioP2
64619;SDS011;51029;51.058;13.826;2023-03-03T00:00:20;43.47;;;28.27;;
64619;SDS011;51029;51.058;13.826;2023-03-03T00:02:46;44.07;;;28.33;;
64619;SDS011;51029;51.058;13.826;2023-03-03T00:05:11;45.13;;;28.57;;
64619;SDS011;51029;51.058;13.826;2023-03-03T00:07:41;44.63;;;28.30;;
64619;SDS011;51029;51.058;13.826;2023-03-03T00:10:08;41.13;;;28.20;;
64619;SDS011;51029;51.058;13.826;2023-03-03T00:12:34;41.93;;;29.03;;
64619;SDS011;51029;51.058;13.826;2023-03-03T00:15:14;45.10;;;28.73;;
64619;SDS011;51029;51.058;13.826;2023-03-03T00:17:44;49.70;;;31.00;;
64619;SDS011;51029;51.058;13.826;2023-03-03T00:23:05;57.00;;;33.03;;
64619;SDS011;51029;51.058;13.826;2023-03-03T00:25:49;50.30;;;31.67;;
64619;SDS011;51029;51.058;13.826;2023-03-03T00:28:23;55.63;;;33.70;;
64619;SDS011;51029;51.058;13.826;2023-03-03T00:30:50;56.97;;;33.17;;
64619;SDS011;51029;51.058;13.826;2023-03-03T00:35:52;71.57;;;34.53;;
64619;SDS011;51029;51.058;13.826;2023-03-03T00:38:18;62.97;;;33.37;;
64619;SDS011;51029;51.058;13.826;2023-03-03T00:40:44;54.83;;;33.70;;
64619;SDS011;51029;51.058;13.826;2023-03-03T00:45:45;59.70;;;33.77;;
64619;SDS011;51029;51.058;13.826;2023-03-03T00:48:18;67.90;;;33.33;;
64619;SDS011;51029;51.058;13.826;2023-03-03T00:50:47;62.27;;;32.67;;
64619;SDS011;51029;51.058;13.826;2023-03-03T00:53:15;59.07;;;33.33;;
64619;SDS011;51029;51.058;13.826;2023-03-03T00:55:42;66.37;;;32.60;;
64619;SDS011;51029;51.058;13.826;2023-03-03T00:58:08;53.00;;;33.93;;
64619;SDS011;51029;51.058;13.826;2023-03-03T01:00:34;58.50;;;33.47;;
64619;SDS011;51029;51.058;13.826;2023-03-03T01:03:04;53.67;;;32.63;;
64619;SDS011;51029;51.058;13.826;2023-03-03T01:05:35;51.97;;;31.73;;
64619;SDS011;51029;51.058;13.826;2023-03-03T01:08:01;53.07;;;32.53;;
64619;SDS011;51029;51.058;13.826;2023-03-03T01:10:28;56.47;;;33.60;;
64619;SDS011;51029;51.058;13.826;2023-03-03T01:12:56;50.60;;;31.57;;
64619;SDS011;51029;51.058;13.826;2023-03-03T01:15:22;53.53;;;32.97;;
64619;SDS011;51029;51.058;13.826;2023-03-03T01:17:48;58.77;;;34.93;;
64619;SDS011;51029;51.058;13.826;2023-03-03T01:20:14;55.17;;;33.77;;
64619;SDS011;51029;51.058;13.826;2023-03-03T01:22:40;60.20;;;36.40;;
64619;SDS011;51029;51.058;13.826;2023-03-03T01:25:06;59.43;;;33.53;;
64619;SDS011;51029;51.058;13.826;2023-03-03T01:27:33;62.83;;;36.07;;
64619;SDS011;51029;51.058;13.826;2023-03-03T01:30:00;61.87;;;35.57;;
64619;SDS011;51029;51.058;13.826;2023-03-03T01:32:26;68.37;;;35.90;;
64619;SDS011;51029;51.058;13.826;2023-03-03T01:34:52;61.23;;;35.47;;
64619;SDS011;51029;51.058;13.826;2023-03-03T01:37:18;65.93;;;37.37;;
64619;SDS011;51029;51.058;13.826;2023-03-03T01:39:48;64.33;;;36.60;;
64619;SDS011;51029;51.058;13.826;2023-03-03T01:42:16;60.50;;;35.00;;
64619;SDS011;51029;51.058;13.826;2023-03-03T01:44:43;56.63;;;34.37;;
64619;SDS011;51029;51.058;13.826;2023-03-03T01:47:13;57.03;;;35.97;;
64619;SDS011;51029;51.058;13.826;2023-03-03T01:49:46;60.67;;;36.23;;
64619;SDS011;51029;51.058;13.826;2023-03-03T01:54:58;63.33;;;36.77;;
64619;SDS011;51029;51.058;13.826;2023-03-03T01:57:28;56.23;;;35.00;;
64619;SDS011;51029;51.058;13.826;2023-03-03T01:59:57;57.67;;;35.80;;
64619;SDS011;51029;51.058;13.826;2023-03-03T02:02:25;61.30;;;36.60;;
64619;SDS011;51029;51.058;13.826;2023-03-03T02:04:52;57.10;;;35.40;;
64619;SDS011;51029;51.058;13.826;2023-03-03T02:07:18;55.87;;;35.17;;
64619;SDS011;51029;51.058;13.826;2023-03-03T02:09:56;65.40;;;36.20;;
64619;SDS011;51029;51.058;13.826;2023-03-03T02:12:45;62.77;;;36.70;;
64619;SDS011;51029;51.058;13.826;2023-03-03T02:15:22;55.97;;;34.23;;
64619;SDS011;51029;51.058;13.826;2023-03-03T02:17:54;59.27;;;36.40;;
64619;SDS011;51029;51.058;13.826;2023-03-03T02:20:43;59.67;;;34.00;;
64619;SDS011;51029;51.058;13.826;2023-03-03T02:26:04;51.63;;;32.77;;
64619;SDS011;51029;51.058;13.826;2023-03-03T02:28:31;53.07;;;32.97;;
64619;SDS011;51029;51.058;13.826;2023-03-03T02:30:59;53.30;;;33.27;;
64619;SDS011;51029;51.058;13.826;2023-03-03T02:33:25;50.40;;;31.63;;
64619;SDS011;51029;51.058;13.826;2023-03-03T02:35:52;57.13;;;34.83;;
64619;SDS011;51029;51.058;13.826;2023-03-03T02:38:19;52.50;;;31.97;;
64619;SDS011;51029;51.058;13.826;2023-03-03T02:40:52;48.10;;;32.27;;
64619;SDS011;51029;51.058;13.826;2023-03-03T02:44:16;53.50;;;31.70;;
64619;SDS011;51029;51.058;13.826;2023-03-03T02:46:25;51.97;;;32.83;;
64619;SDS011;51029;51.058;13.826;2023-03-03T02:48:51;56.23;;;35.23;;
64619;SDS011;51029;51.058;13.826;2023-03-03T02:51:16;54.97;;;34.07;;
64619;SDS011;51029;51.058;13.826;2023-03-03T02:53:42;53.50;;;34.13;;
64619;SDS011;51029;51.058;13.826;2023-03-03T02:56:07;52.70;;;33.80;;
64619;SDS011;51029;51.058;13.826;2023-03-03T02:58:33;58.90;;;34.43;;
64619;SDS011;51029;51.058;13.826;2023-03-03T03:01:00;58.00;;;35.50;;
64619;SDS011;51029;51.058;13.826;2023-03-03T03:03:25;58.60;;;34.07;;
64619;SDS011;51029;51.058;13.826;2023-03-03T03:05:51;60.30;;;34.77;;
64619;SDS011;51029;51.058;13.826;2023-03-03T03:08:16;58.20;;;34.77;;
64619;SDS011;51029;51.058;13.826;2023-03-03T03:10:42;58.67;;;36.00;;
64619;SDS011;51029;51.058;13.826;2023-03-03T03:13:07;64.17;;;36.40;;
64619;SDS011;51029;51.058;13.826;2023-03-03T03:15:34;63.13;;;37.10;;
64619;SDS011;51029;51.058;13.826;2023-03-03T03:18:00;59.83;;;34.50;;
64619;SDS011;51029;51.058;13.826;2023-03-03T03:20:25;60.47;;;34.13;;
64619;SDS011;51029;51.058;13.826;2023-03-03T03:22:51;71.90;;;34.30;;
64619;SDS011;51029;51.058;13.826;2023-03-03T03:25:17;66.47;;;35.13;;
64619;SDS011;51029;51.058;13.826;2023-03-03T03:27:42;60.83;;;32.20;;
64619;SDS011;51029;51.058;13.826;2023-03-03T03:30:08;59.70;;;33.17;;
64619;SDS011;51029;51.058;13.826;2023-03-03T03:32:33;59.87;;;32.23;;
64619;SDS011;51029;51.058;13.826;2023-03-03T03:34:59;57.37;;;32.07;;
64619;SDS011;51029;51.058;13.826;2023-03-03T03:37:25;54.17;;;32.40;;
64619;SDS011;51029;51.058;13.826;2023-03-03T03:39:50;63.43;;;32.47;;
64619;SDS011;51029;51.058;13.826;2023-03-03T03:42:16;61.10;;;34.27;;
64619;SDS011;51029;51.058;13.826;2023-03-03T03:44:41;59.20;;;33.83;;
64619;SDS011;51029;51.058;13.826;2023-03-03T03:47:07;58.13;;;32.83;;
64619;SDS011;51029;51.058;13.826;2023-03-03T03:49:32;68.57;;;34.63;;
64619;SDS011;51029;51.058;13.826;2023-03-03T03:51:58;66.13;;;32.50;;
64619;SDS011;51029;51.058;13.826;2023-03-03T03:54:23;63.70;;;34.63;;
64619;SDS011;51029;51.058;13.826;2023-03-03T03:56:49;62.10;;;32.93;;
64619;SDS011;51029;51.058;13.826;2023-03-03T03:59:15;60.03;;;33.97;;
64619;SDS011;51029;51.058;13.826;2023-03-03T04:01:40;61.57;;;33.10;;
64619;SDS011;51029;51.058;13.826;2023-03-03T04:04:06;57.50;;;34.10;;
64619;SDS011;51029;51.058;13.826;2023-03-03T04:06:31;60.03;;;32.47;;
64619;SDS011;51029;51.058;13.826;2023-03-03T04:08:57;60.57;;;32.47;;
64619;SDS011;51029;51.058;13.826;2023-03-03T04:11:22;57.13;;;31.83;;
64619;SDS011;51029;51.058;13.826;2023-03-03T04:13:48;58.00;;;33.07;;
64619;SDS011;51029;51.058;13.826;2023-03-03T04:16:13;57.77;;;33.37;;
64619;SDS011;51029;51.058;13.826;2023-03-03T04:18:40;55.77;;;31.03;;
64619;SDS011;51029;51.058;13.826;2023-03-03T04:21:08;52.90;;;32.20;;
64619;SDS011;51029;51.058;13.826;2023-03-03T04:23:36;51.90;;;30.50;;
64619;SDS011;51029;51.058;13.826;2023-03-03T04:26:02;49.27;;;30.73;;
64619;SDS011;51029;51.058;13.826;2023-03-03T04:28:27;48.27;;;29.63;;
64619;SDS011;51029;51.058;13.826;2023-03-03T04:30:53;48.13;;;28.33;;
64619;SDS011;51029;51.058;13.826;2023-03-03T04:33:18;45.40;;;27.23;;
64619;SDS011;51029;51.058;13.826;2023-03-03T04:35:44;46.53;;;28.60;;
64619;SDS011;51029;51.058;13.826;2023-03-03T04:38:09;46.17;;;27.17;;
64619;SDS011;51029;51.058;13.826;2023-03-03T04:40:35;47.27;;;27.67;;
64619;SDS011;51029;51.058;13.826;2023-03-03T04:43:00;47.60;;;28.23;;
64619;SDS011;51029;51.058;13.826;2023-03-03T04:45:26;50.23;;;29.33;;
64619;SDS011;51029;51.058;13.826;2023-03-03T04:47:51;42.57;;;27.17;;
64619;SDS011;51029;51.058;13.826;2023-03-03T04:50:17;43.67;;;27.50;;
64619;SDS011;51029;51.058;13.826;2023-03-03T04:52:42;44.50;;;27.40;;
64619;SDS011;51029;51.058;13.826;2023-03-03T04:55:08;44.43;;;26.60;;
64619;SDS011;51029;51.058;13.826;2023-03-03T04:57:34;42.30;;;26.23;;
64619;SDS011;51029;51.058;13.826;2023-03-03T04:59:59;41.57;;;26.10;;
64619;SDS011;51029;51.058;13.826;2023-03-03T05:02:25;44.97;;;27.20;;
64619;SDS011;51029;51.058;13.826;2023-03-03T05:04:50;46.50;;;27.50;;
64619;SDS011;51029;51.058;13.826;2023-03-03T05:07:16;41.67;;;25.67;;
64619;SDS011;51029;51.058;13.826;2023-03-03T05:09:43;39.37;;;24.27;;
64619;SDS011;51029;51.058;13.826;2023-03-03T05:12:08;39.33;;;24.77;;
64619;SDS011;51029;51.058;13.826;2023-03-03T05:14:34;38.83;;;23.33;;
64619;SDS011;51029;51.058;13.826;2023-03-03T05:16:59;35.97;;;23.37;;
64619;SDS011;51029;51.058;13.826;2023-03-03T05:19:25;38.50;;;23.83;;
64619;SDS011;51029;51.058;13.826;2023-03-03T05:21:50;39.67;;;23.43;;
64619;SDS011;51029;51.058;13.826;2023-03-03T05:24:16;37.57;;;22.83;;
64619;SDS011;51029;51.058;13.826;2023-03-03T05:26:42;41.87;;;24.67;;
64619;SDS011;51029;51.058;13.826;2023-03-03T05:29:08;39.83;;;24.00;;
64619;SDS011;51029;51.058;13.826;2023-03-03T05:31:34;38.00;;;23.40;;
64619;SDS011;51029;51.058;13.826;2023-03-03T05:33:59;39.87;;;24.27;;
64619;SDS011;51029;51.058;13.826;2023-03-03T05:36:25;42.27;;;22.87;;
64619;SDS011;51029;51.058;13.826;2023-03-03T05:38:50;41.47;;;23.13;;
64619;SDS011;51029;51.058;13.826;2023-03-03T05:41:16;45.97;;;23.60;;
64619;SDS011;51029;51.058;13.826;2023-03-03T05:43:42;44.77;;;22.60;;
64619;SDS011;51029;51.058;13.826;2023-03-03T05:46:09;46.73;;;23.40;;
64619;SDS011;51029;51.058;13.826;2023-03-03T05:48:34;49.47;;;23.77;;
64619;SDS011;51029;51.058;13.826;2023-03-03T05:51:00;42.03;;;23.10;;
64619;SDS011;51029;51.058;13.826;2023-03-03T05:53:26;45.10;;;22.80;;
64619;SDS011;51029;51.058;13.826;2023-03-03T05:55:52;54.80;;;24.97;;
64619;SDS011;51029;51.058;13.826;2023-03-03T05:58:18;48.80;;;24.63;;
64619;SDS011;51029;51.058;13.826;2023-03-03T06:00:44;57.83;;;25.23;;
64619;SDS011;51029;51.058;13.826;2023-03-03T06:03:09;50.27;;;23.83;;
64619;SDS011;51029;51.058;13.826;2023-03-03T06:05:35;56.97;;;25.60;;
64619;SDS011;51029;51.058;13.826;2023-03-03T06:08:01;54.83;;;26.47;;
64619;SDS011;51029;51.058;13.826;2023-03-03T06:10:26;54.30;;;24.87;;
64619;SDS011;51029;51.058;13.826;2023-03-03T06:12:52;59.33;;;26.00;;
64619;SDS011;51029;51.058;13.826;2023-03-03T06:15:19;68.97;;;26.33;;
64619;SDS011;51029;51.058;13.826;2023-03-03T06:17:45;62.37;;;27.97;;
64619;SDS011;51029;51.058;13.826;2023-03-03T06:20:10;64.97;;;26.27;;
64619;SDS011;51029;51.058;13.826;2023-03-03T06:22:36;62.23;;;25.23;;
64619;SDS011;51029;51.058;13.826;2023-03-03T06:25:01;87.03;;;26.40;;
64619;SDS011;51029;51.058;13.826;2023-03-03T06:27:27;64.40;;;26.87;;
64619;SDS011;51029;51.058;13.826;2023-03-03T06:29:53;75.43;;;27.73;;
64619;SDS011;51029;51.058;13.826;2023-03-03T06:32:18;74.70;;;28.90;;
64619;SDS011;51029;51.058;13.826;2023-03-03T06:34:44;78.03;;;27.27;;
64619;SDS011;51029;51.058;13.826;2023-03-03T06:37:09;70.37;;;29.57;;
64619;SDS011;51029;51.058;13.826;2023-03-03T06:39:35;71.20;;;29.00;;
64619;SDS011;51029;51.058;13.826;2023-03-03T06:42:00;72.27;;;28.53;;
64619;SDS011;51029;51.058;13.826;2023-03-03T06:44:26;63.90;;;26.53;;
64619;SDS011;51029;51.058;13.826;2023-03-03T06:46:51;64.33;;;29.23;;
64619;SDS011;51029;51.058;13.826;2023-03-03T06:49:17;63.37;;;28.20;;
64619;SDS011;51029;51.058;13.826;2023-03-03T06:51:43;58.20;;;28.37;;
64619;SDS011;51029;51.058;13.826;2023-03-03T06:54:11;61.53;;;27.57;;
64619;SDS011;51029;51.058;13.826;2023-03-03T06:56:38;63.53;;;27.97;;
64619;SDS011;51029;51.058;13.826;2023-03-03T06:59:09;63.30;;;27.97;;
64619;SDS011;51029;51.058;13.826;2023-03-03T07:01:37;59.97;;;26.30;;
64619;SDS011;51029;51.058;13.826;2023-03-03T07:04:09;57.37;;;26.53;;
64619;SDS011;51029;51.058;13.826;2023-03-03T07:06:41;57.23;;;27.47;;
64619;SDS011;51029;51.058;13.826;2023-03-03T07:09:26;54.33;;;26.23;;
64619;SDS011;51029;51.058;13.826;2023-03-03T07:11:59;55.73;;;25.57;;
64619;SDS011;51029;51.058;13.826;2023-03-03T07:14:27;55.97;;;25.43;;
64619;SDS011;51029;51.058;13.826;2023-03-03T07:16:57;50.77;;;25.50;;
64619;SDS011;51029;51.058;13.826;2023-03-03T07:19:28;52.97;;;24.20;;
64619;SDS011;51029;51.058;13.826;2023-03-03T07:21:59;51.40;;;24.87;;
64619;SDS011;51029;51.058;13.826;2023-03-03T07:24:56;58.63;;;27.43;;
64619;SDS011;51029;51.058;13.826;2023-03-03T07:27:26;55.53;;;27.03;;
64619;SDS011;51029;51.058;13.826;2023-03-03T07:29:54;61.37;;;31.80;;
64619;SDS011;51029;51.058;13.826;2023-03-03T07:32:39;54.50;;;25.30;;
64619;SDS011;51029;51.058;13.826;2023-03-03T07:35:49;59.27;;;29.33;;
64619;SDS011;51029;51.058;13.826;2023-03-03T07:38:11;59.20;;;26.80;;
64619;SDS011;51029;51.058;13.826;2023-03-03T07:40:47;55.53;;;25.63;;
64619;SDS011;51029;51.058;13.826;2023-03-03T07:45:51;49.60;;;25.67;;
64619;SDS011;51029;51.058;13.826;2023-03-03T07:48:22;54.20;;;26.23;;
64619;SDS011;51029;51.058;13.826;2023-03-03T07:50:50;49.73;;;25.80;;
64619;SDS011;51029;51.058;13.826;2023-03-03T07:53:21;50.57;;;24.10;;
64619;SDS011;51029;51.058;13.826;2023-03-03T07:58:29;50.97;;;24.50;;
64619;SDS011;51029;51.058;13.826;2023-03-03T08:03:55;51.10;;;24.03;;
64619;SDS011;51029;51.058;13.826;2023-03-03T08:09:00;48.90;;;25.23;;
64619;SDS011;51029;51.058;13.826;2023-03-03T08:11:59;40.87;;;22.27;;
64619;SDS011;51029;51.058;13.826;2023-03-03T08:14:34;41.97;;;21.97;;
64619;SDS011;51029;51.058;13.826;2023-03-03T08:17:06;38.17;;;21.07;;
64619;SDS011;51029;51.058;13.826;2023-03-03T08:19:41;34.20;;;19.67;;
64619;SDS011;51029;51.058;13.826;2023-03-03T08:22:24;36.33;;;19.23;;
64619;SDS011;51029;51.058;13.826;2023-03-03T08:24:57;40.10;;;20.17;;
64619;SDS011;51029;51.058;13.826;2023-03-03T08:27:22;38.60;;;20.80;;
64619;SDS011;51029;51.058;13.826;2023-03-03T08:29:48;39.70;;;19.93;;
64619;SDS011;51029;51.058;13.826;2023-03-03T08:32:14;36.20;;;19.93;;
64619;SDS011;51029;51.058;13.826;2023-03-03T08:34:39;36.27;;;19.63;;
64619;SDS011;51029;51.058;13.826;2023-03-03T08:37:05;35.73;;;20.57;;
64619;SDS011;51029;51.058;13.826;2023-03-03T08:39:30;107.20;;;44.97;;
64619;SDS011;51029;51.058;13.826;2023-03-03T08:41:56;38.70;;;21.03;;
64619;SDS011;51029;51.058;13.826;2023-03-03T08:44:22;49.50;;;32.00;;
64619;SDS011;51029;51.058;13.826;2023-03-03T08:46:48;44.60;;;24.43;;
64619;SDS011;51029;51.058;13.826;2023-03-03T08:49:13;39.80;;;20.80;;
64619;SDS011;51029;51.058;13.826;2023-03-03T08:51:39;46.77;;;24.73;;
64619;SDS011;51029;51.058;13.826;2023-03-03T08:54:05;41.30;;;22.70;;
64619;SDS011;51029;51.058;13.826;2023-03-03T08:56:30;36.03;;;20.03;;
64619;SDS011;51029;51.058;13.826;2023-03-03T08:58:56;35.73;;;21.50;;
64619;SDS011;51029;51.058;13.826;2023-03-03T09:01:21;168.17;;;71.60;;
64619;SDS011;51029;51.058;13.826;2023-03-03T09:03:47;174.10;;;72.17;;
64619;SDS011;51029;51.058;13.826;2023-03-03T09:06:13;47.03;;;26.17;;
64619;SDS011;51029;51.058;13.826;2023-03-03T09:08:39;28.67;;;16.57;;
64619;SDS011;51029;51.058;13.826;2023-03-03T09:11:13;193.10;;;120.43;;
64619;SDS011;51029;51.058;13.826;2023-03-03T09:13:42;26.33;;;16.03;;
64619;SDS011;51029;51.058;13.826;2023-03-03T09:16:13;25.30;;;15.20;;
64619;SDS011;51029;51.058;13.826;2023-03-03T09:18:39;27.67;;;18.37;;
64619;SDS011;51029;51.058;13.826;2023-03-03T09:21:22;43.03;;;28.03;;
64619;SDS011;51029;51.058;13.826;2023-03-03T09:34:20;46.57;;;30.80;;
64619;SDS011;51029;51.058;13.826;2023-03-03T09:39:54;112.30;;;67.57;;
64619;SDS011;51029;51.058;13.826;2023-03-03T09:53:50;72.20;;;48.43;;
64619;SDS011;51029;51.058;13.826;2023-03-03T09:56:32;19.13;;;12.07;;
64619;SDS011;51029;51.058;13.826;2023-03-03T09:59:17;18.10;;;11.13;;
64619;SDS011;51029;51.058;13.826;2023-03-03T10:07:40;29.17;;;17.80;;
64619;SDS011;51029;51.058;13.826;2023-03-03T10:15:53;41.37;;;24.77;;
64619;SDS011;51029;51.058;13.826;2023-03-03T10:18:44;12.97;;;8.97;;
64619;SDS011;51029;51.058;13.826;2023-03-03T10:21:20;14.97;;;10.03;;
64619;SDS011;51029;51.058;13.826;2023-03-03T10:24:00;16.30;;;11.07;;
64619;SDS011;51029;51.058;13.826;2023-03-03T10:37:46;14.33;;;10.27;;
64619;SDS011;51029;51.058;13.826;2023-03-03T10:45:28;14.82;;;11.27;;
64619;SDS011;51029;51.058;13.826;2023-03-03T10:48:30;15.80;;;12.33;;
64619;SDS011;51029;51.058;13.826;2023-03-03T10:56:26;65.97;;;56.97;;
64619;SDS011;51029;51.058;13.826;2023-03-03T10:59:32;16.60;;;11.90;;
64619;SDS011;51029;51.058;13.826;2023-03-03T11:02:15;23.47;;;16.23;;
64619;SDS011;51029;51.058;13.826;2023-03-03T11:04:57;14.23;;;10.80;;
64619;SDS011;51029;51.058;13.826;2023-03-03T11:07:41;38.70;;;24.03;;
64619;SDS011;51029;51.058;13.826;2023-03-03T11:15:30;15.60;;;11.43;;
64619;SDS011;51029;51.058;13.826;2023-03-03T11:21:10;15.73;;;11.10;;
64619;SDS011;51029;51.058;13.826;2023-03-03T11:29:24;11.57;;;8.43;;
64619;SDS011;51029;51.058;13.826;2023-03-03T11:34:45;12.33;;;9.00;;
64619;SDS011;51029;51.058;13.826;2023-03-03T11:39:48;12.30;;;9.23;;
64619;SDS011;51029;51.058;13.826;2023-03-03T11:45:12;12.30;;;9.67;;
64619;SDS011;51029;51.058;13.826;2023-03-03T11:47:49;25.87;;;21.10;;
64619;SDS011;51029;51.058;13.826;2023-03-03T11:50:21;17.63;;;12.40;;
64619;SDS011;51029;51.058;13.826;2023-03-03T11:52:55;10.80;;;8.07;;
64619;SDS011;51029;51.058;13.826;2023-03-03T11:55:37;13.03;;;8.97;;
64619;SDS011;51029;51.058;13.826;2023-03-03T12:03:48;12.83;;;8.50;;
64619;SDS011;51029;51.058;13.826;2023-03-03T12:06:29;9.50;;;7.87;;
64619;SDS011;51029;51.058;13.826;2023-03-03T12:09:21;10.63;;;8.03;;
64619;SDS011;51029;51.058;13.826;2023-03-03T12:12:01;10.50;;;8.27;;
64619;SDS011;51029;51.058;13.826;2023-03-03T12:20:27;12.90;;;9.00;;
64619;SDS011;51029;51.058;13.826;2023-03-03T12:23:20;10.67;;;8.20;;
64619;SDS011;51029;51.058;13.826;2023-03-03T12:26:15;11.83;;;8.23;;
64619;SDS011;51029;51.058;13.826;2023-03-03T12:28:51;15.80;;;7.87;;
64619;SDS011;51029;51.058;13.826;2023-03-03T12:31:29;11.30;;;8.07;;
64619;SDS011;51029;51.058;13.826;2023-03-03T12:34:04;10.27;;;7.00;;
64619;SDS011;51029;51.058;13.826;2023-03-03T12:39:43;7.70;;;6.33;;
64619;SDS011;51029;51.058;13.826;2023-03-03T12:44:54;17.33;;;7.63;;
64619;SDS011;51029;51.058;13.826;2023-03-03T12:47:37;11.30;;;7.10;;
64619;SDS011;51029;51.058;13.826;2023-03-03T12:52:47;9.07;;;7.23;;
64619;SDS011;51029;51.058;13.826;2023-03-03T12:55:46;8.17;;;6.33;;
64619;SDS011;51029;51.058;13.826;2023-03-03T12:58:36;9.77;;;6.10;;
64619;SDS011;51029;51.058;13.826;2023-03-03T13:06:50;11.07;;;6.13;;
64619;SDS011;51029;51.058;13.826;2023-03-03T13:12:17;26.77;;;10.40;;
64619;SDS011;51029;51.058;13.826;2023-03-03T13:15:20;8.37;;;5.13;;
64619;SDS011;51029;51.058;13.826;2023-03-03T13:17:54;7.67;;;5.73;;
64619;SDS011;51029;51.058;13.826;2023-03-03T13:20:40;7.77;;;6.10;;
64619;SDS011;51029;51.058;13.826;2023-03-03T13:26:12;38.67;;;15.60;;
64619;SDS011;51029;51.058;13.826;2023-03-03T13:28:52;11.47;;;6.43;;
64619;SDS011;51029;51.058;13.826;2023-03-03T13:31:40;10.37;;;7.20;;
64619;SDS011;51029;51.058;13.826;2023-03-03T13:37:04;13.13;;;8.90;;
64619;SDS011;51029;51.058;13.826;2023-03-03T13:39:42;14.23;;;8.97;;
64619;SDS011;51029;51.058;13.826;2023-03-03T13:42:32;14.83;;;9.50;;
64619;SDS011;51029;51.058;13.826;2023-03-03T13:45:03;14.60;;;8.97;;
64619;SDS011;51029;51.058;13.826;2023-03-03T13:47:42;13.47;;;8.90;;
64619;SDS011;51029;51.058;13.826;2023-03-03T13:50:46;12.13;;;8.73;;
64619;SDS011;51029;51.058;13.826;2023-03-03T13:59:35;13.03;;;9.47;;
64619;SDS011;51029;51.058;13.826;2023-03-03T14:02:28;14.40;;;10.43;;
64619;SDS011;51029;51.058;13.826;2023-03-03T14:05:37;12.90;;;8.70;;
64619;SDS011;51029;51.058;13.826;2023-03-03T14:08:19;35.33;;;18.13;;
64619;SDS011;51029;51.058;13.826;2023-03-03T14:11:20;19.67;;;8.80;;
64619;SDS011;51029;51.058;13.826;2023-03-03T14:16:29;20.10;;;14.57;;
64619;SDS011;51029;51.058;13.826;2023-03-03T14:18:57;21.13;;;13.57;;
64619;SDS011;51029;51.058;13.826;2023-03-03T14:21:28;12.60;;;9.03;;
64619;SDS011;51029;51.058;13.826;2023-03-03T14:24:04;12.60;;;8.80;;
64619;SDS011;51029;51.058;13.826;2023-03-03T14:26:48;14.27;;;8.60;;
64619;SDS011;51029;51.058;13.826;2023-03-03T14:31:50;45.33;;;23.13;;
64619;SDS011;51029;51.058;13.826;2023-03-03T14:34:25;20.80;;;11.07;;
64619;SDS011;51029;51.058;13.826;2023-03-03T14:37:20;11.33;;;8.60;;
64619;SDS011;51029;51.058;13.826;2023-03-03T14:39:50;14.67;;;9.50;;
64619;SDS011;51029;51.058;13.826;2023-03-03T14:42:36;13.47;;;8.60;;
64619;SDS011;51029;51.058;13.826;2023-03-03T14:45:14;14.63;;;9.77;;
64619;SDS011;51029;51.058;13.826;2023-03-03T14:48:44;17.67;;;9.77;;
64619;SDS011;51029;51.058;13.826;2023-03-03T14:50:52;14.83;;;9.27;;
64619;SDS011;51029;51.058;13.826;2023-03-03T14:53:41;15.10;;;9.60;;
64619;SDS011;51029;51.058;13.826;2023-03-03T14:59:10;11.17;;;8.07;;
64619;SDS011;51029;51.058;13.826;2023-03-03T15:01:42;12.90;;;8.23;;
64619;SDS011;51029;51.058;13.826;2023-03-03T15:12:19;12.67;;;9.00;;
64619;SDS011;51029;51.058;13.826;2023-03-03T15:20:17;12.70;;;9.33;;
64619;SDS011;51029;51.058;13.826;2023-03-03T15:22:47;14.60;;;9.57;;
64619;SDS011;51029;51.058;13.826;2023-03-03T15:28:15;15.77;;;9.30;;
64619;SDS011;51029;51.058;13.826;2023-03-03T15:33:21;14.00;;;9.27;;
64619;SDS011;51029;51.058;13.826;2023-03-03T15:35:53;11.60;;;8.60;;
64619;SDS011;51029;51.058;13.826;2023-03-03T15:46:24;13.57;;;8.83;;
64619;SDS011;51029;51.058;13.826;2023-03-03T15:48:56;14.27;;;9.03;;
64619;SDS011;51029;51.058;13.826;2023-03-03T15:51:46;15.93;;;9.03;;
64619;SDS011;51029;51.058;13.826;2023-03-03T15:57:03;12.83;;;8.93;;
64619;SDS011;51029;51.058;13.826;2023-03-03T15:59:36;14.43;;;9.27;;
64619;SDS011;51029;51.058;13.826;2023-03-03T16:02:27;14.10;;;8.73;;
64619;SDS011;51029;51.058;13.826;2023-03-03T16:05:30;15.60;;;10.13;;
64619;SDS011;51029;51.058;13.826;2023-03-03T16:21:45;20.67;;;11.87;;
64619;SDS011;51029;51.058;13.826;2023-03-03T16:24:38;21.70;;;12.23;;
64619;SDS011;51029;51.058;13.826;2023-03-03T16:27:24;22.40;;;12.47;;
64619;SDS011;51029;51.058;13.826;2023-03-03T16:35:43;25.13;;;14.83;;
64619;SDS011;51029;51.058;13.826;2023-03-03T16:38:22;24.73;;;14.43;;
64619;SDS011;51029;51.058;13.826;2023-03-03T16:40:54;23.53;;;13.40;;
64619;SDS011;51029;51.058;13.826;2023-03-03T16:46:26;30.63;;;15.57;;
64619;SDS011;51029;51.058;13.826;2023-03-03T16:54:17;30.73;;;16.47;;
64619;SDS011;51029;51.058;13.826;2023-03-03T17:11:47;29.07;;;16.23;;
64619;SDS011;51029;51.058;13.826;2023-03-03T17:16:43;30.30;;;17.03;;
64619;SDS011;51029;51.058;13.826;2023-03-03T17:24:54;32.00;;;16.70;;
64619;SDS011;51029;51.058;13.826;2023-03-03T17:27:49;36.37;;;20.83;;
64619;SDS011;51029;51.058;13.826;2023-03-03T17:30:41;37.20;;;19.50;;
64619;SDS011;51029;51.058;13.826;2023-03-03T17:42:01;32.63;;;18.13;;
64619;SDS011;51029;51.058;13.826;2023-03-03T17:44:38;33.73;;;18.47;;
64619;SDS011;51029;51.058;13.826;2023-03-03T17:47:10;35.40;;;18.80;;
64619;SDS011;51029;51.058;13.826;2023-03-03T17:55:38;33.00;;;18.73;;
64619;SDS011;51029;51.058;13.826;2023-03-03T17:58:21;32.80;;;19.33;;
64619;SDS011;51029;51.058;13.826;2023-03-03T18:06:58;40.33;;;21.10;;
64619;SDS011;51029;51.058;13.826;2023-03-03T18:09:48;36.47;;;19.97;;
64619;SDS011;51029;51.058;13.826;2023-03-03T18:12:35;40.20;;;21.87;;
64619;SDS011;51029;51.058;13.826;2023-03-03T18:26:02;45.93;;;24.07;;
64619;SDS011;51029;51.058;13.826;2023-03-03T18:28:48;41.17;;;23.13;;
64619;SDS011;51029;51.058;13.826;2023-03-03T18:31:22;40.67;;;22.87;;
64619;SDS011;51029;51.058;13.826;2023-03-03T18:33:58;37.77;;;21.50;;
64619;SDS011;51029;51.058;13.826;2023-03-03T18:38:55;37.37;;;21.43;;
64619;SDS011;51029;51.058;13.826;2023-03-03T18:41:26;41.63;;;23.93;;
64619;SDS011;51029;51.058;13.826;2023-03-03T18:44:00;40.97;;;22.23;;
64619;SDS011;51029;51.058;13.826;2023-03-03T18:46:47;43.20;;;24.03;;
64619;SDS011;51029;51.058;13.826;2023-03-03T18:49:13;39.97;;;22.93;;
64619;SDS011;51029;51.058;13.826;2023-03-03T19:02:12;43.30;;;24.47;;
64619;SDS011;51029;51.058;13.826;2023-03-03T19:04:42;41.60;;;23.87;;
64619;SDS011;51029;51.058;13.826;2023-03-03T19:07:23;43.23;;;24.57;;
64619;SDS011;51029;51.058;13.826;2023-03-03T19:09:54;44.83;;;24.93;;
64619;SDS011;51029;51.058;13.826;2023-03-03T19:20:47;45.60;;;24.17;;
64619;SDS011;51029;51.058;13.826;2023-03-03T19:23:22;43.77;;;23.13;;
64619;SDS011;51029;51.058;13.826;2023-03-03T19:31:46;42.83;;;22.73;;